createdAt,value
2023-05-05T00:01:08.627Z,101130.06
2023-05-05T00:06:01.915Z,101137.16
2023-05-05T00:10:54.842Z,101162.91
2023-05-05T00:15:53.662Z,101151.88
2023-05-05T00:20:47.890Z,101132.44
2023-05-05T00:25:41.549Z,101164.16
2023-05-05T00:30:35.246Z,101167.47
2023-05-05T00:35:27.456Z,101142.91
2023-05-05T00:40:19.748Z,101124.00
2023-05-05T00:45:16.207Z,101127.50
2023-05-05T00:50:10.457Z,101120.56
2023-05-05T00:55:04.549Z,101143.34
2023-05-05T01:00:00.339Z,101146.22
2023-05-05T01:04:55.760Z,101148.75
2023-05-05T01:10:20.221Z,101123.88
2023-05-05T01:15:28.072Z,101138.97
2023-05-05T01:20:41.281Z,101133.66
2023-05-05T01:26:03.068Z,101131.00
2023-05-05T01:31:53.658Z,101130.91
2023-05-05T01:37:10.118Z,101112.59
2023-05-05T01:42:24.966Z,101109.28
2023-05-05T01:47:21.875Z,101097.41
2023-05-05T01:52:34.379Z,101106.81
2023-05-05T01:57:30.036Z,101108.41
2023-05-05T02:02:42.923Z,101109.34
2023-05-05T02:07:58.549Z,101117.34
2023-05-05T02:12:53.265Z,101113.94
2023-05-05T02:17:48.471Z,101106.50
2023-05-05T02:22:42.065Z,101126.25
2023-05-05T02:27:38.635Z,101102.44
2023-05-05T02:32:53.675Z,101105.09
2023-05-05T02:37:56.719Z,101103.28
2023-05-05T02:42:51.891Z,101134.22
2023-05-05T02:47:47.083Z,101103.19
2023-05-05T02:52:40.894Z,101122.00
2023-05-05T02:57:35.564Z,101136.16
2023-05-05T03:02:42.393Z,101111.53
2023-05-05T03:07:43.008Z,101111.47
2023-05-05T03:12:55.310Z,101086.69
2023-05-05T03:17:58.850Z,101106.22
2023-05-05T03:22:53.184Z,101087.16
2023-05-05T03:27:45.751Z,101092.09
2023-05-05T03:32:42.251Z,101077.78
2023-05-05T03:37:35.622Z,101095.41
2023-05-05T03:42:29.207Z,101104.25
2023-05-05T03:47:24.729Z,101076.63
2023-05-05T03:52:20.736Z,101044.63
2023-05-05T03:57:13.749Z,101089.16
2023-05-05T04:02:07.444Z,101089.03
2023-05-05T04:06:59.781Z,101089.16
2023-05-05T04:11:52.933Z,101104.91
2023-05-05T04:16:47.780Z,101046.22
2023-05-05T04:21:41.315Z,101089.03
2023-05-05T04:26:34.700Z,101095.88
2023-05-05T04:31:28.060Z,101081.75
2023-05-05T04:36:20.428Z,101105.69
2023-05-05T04:41:14.284Z,101070.06
2023-05-05T04:46:09.044Z,101110.88
2023-05-05T04:51:06.810Z,101088.66
2023-05-05T04:56:03.309Z,101116.38
2023-05-05T05:00:56.821Z,101127.59
2023-05-05T05:05:49.928Z,101124.94
2023-05-05T05:10:44.144Z,101129.31
2023-05-05T05:15:39.644Z,101114.13
2023-05-05T05:20:33.438Z,101146.94
2023-05-05T05:25:27.612Z,101138.22
2023-05-05T05:30:21.642Z,101142.59
2023-05-05T05:35:15.529Z,101116.19
2023-05-05T05:40:11.092Z,101125.53
2023-05-05T05:45:06.212Z,101140.03
2023-05-05T05:49:59.358Z,101137.28
2023-05-05T05:54:57.187Z,101140.78
2023-05-05T05:59:51.124Z,101104.41
2023-05-05T06:04:44.556Z,101159.50
2023-05-05T06:09:38.608Z,101137.66
2023-05-05T06:14:31.124Z,101155.22
2023-05-05T06:19:24.488Z,101150.38
2023-05-05T06:24:18.982Z,101149.63
2023-05-05T06:29:12.565Z,101146.09
2023-05-05T06:34:05.165Z,101149.44
2023-05-05T06:38:57.379Z,101129.88
2023-05-05T06:43:52.393Z,101160.81
2023-05-05T06:48:46.254Z,101163.56
2023-05-05T06:53:39.872Z,101150.28
2023-05-05T06:58:32.891Z,101159.19
2023-05-05T07:03:27.477Z,101163.75
2023-05-05T07:08:20.145Z,101142.50
2023-05-05T07:13:13.988Z,101134.56
2023-05-05T07:18:07.144Z,101130.16
2023-05-05T07:23:00.814Z,101129.94
2023-05-05T07:27:54.652Z,101114.97
2023-05-05T07:32:47.773Z,101143.88
2023-05-05T07:37:41.861Z,101170.38
2023-05-05T07:42:34.761Z,101156.56
2023-05-05T07:47:27.982Z,101160.31
2023-05-05T07:52:30.047Z,101135.00
2023-05-05T07:57:31.668Z,101152.22
2023-05-05T08:02:24.496Z,101158.19
2023-05-05T08:07:18.027Z,101154.78
2023-05-05T08:12:12.811Z,101131.72
2023-05-05T08:17:05.986Z,101163.91
2023-05-05T08:22:01.216Z,101145.31
2023-05-05T08:26:54.972Z,101154.22
2023-05-05T08:31:48.498Z,101147.59
2023-05-05T08:36:40.976Z,101165.47
2023-05-05T08:41:33.791Z,101141.34
2023-05-05T08:46:31.999Z,101113.81
2023-05-05T08:51:32.057Z,101126.28
2023-05-05T08:56:33.141Z,101133.28
2023-05-05T09:01:34.231Z,101103.66
2023-05-05T09:06:28.124Z,101107.16
2023-05-05T09:11:22.698Z,101124.81
2023-05-05T09:16:16.481Z,101130.16
2023-05-05T09:21:26.476Z,101106.06
2023-05-05T09:26:19.898Z,101112.97
2023-05-05T09:31:16.067Z,101125.69
2023-05-05T09:36:09.534Z,101130.63
2023-05-05T09:41:02.765Z,101114.88
2023-05-05T09:46:09.064Z,101106.16
2023-05-05T09:51:02.658Z,101098.16
2023-05-05T09:56:00.985Z,101082.81
2023-05-05T10:00:54.506Z,101108.63
2023-05-05T10:05:56.179Z,101104.81
2023-05-05T10:10:57.969Z,101091.03
2023-05-05T10:15:53.132Z,101098.94
2023-05-05T10:20:46.090Z,101040.06
2023-05-05T10:25:47.004Z,101058.88
2023-05-05T10:30:46.582Z,101058.66
2023-05-05T10:35:45.878Z,101072.13
2023-05-05T10:40:49.151Z,101076.31
2023-05-05T10:45:43.665Z,101076.63
2023-05-05T10:50:42.905Z,101021.69
2023-05-05T10:56:14.422Z,101050.69
2023-05-05T11:01:08.730Z,101032.09
2023-05-05T11:06:03.723Z,101047.28
2023-05-05T11:10:57.253Z,101027.72
2023-05-05T11:15:54.384Z,101004.50
2023-05-05T11:20:59.836Z,101024.94
2023-05-05T11:25:54.536Z,101012.53
2023-05-05T11:30:59.938Z,101008.06
2023-05-05T11:36:03.410Z,101008.81
2023-05-05T11:41:06.207Z,101009.75
2023-05-05T11:46:11.981Z,101009.69
2023-05-05T11:51:10.171Z,100969.00
2023-05-05T11:56:10.364Z,100968.13
2023-05-05T12:01:27.267Z,100983.41
2023-05-05T12:06:21.134Z,100973.59
2023-05-05T12:11:14.260Z,100967.75
2023-05-05T12:16:13.701Z,100970.00
2023-05-05T12:21:17.801Z,100963.06
2023-05-05T12:26:27.730Z,100958.41
2023-05-05T12:31:21.320Z,100955.94
2023-05-05T12:36:14.567Z,100955.00
2023-05-05T12:41:07.835Z,100942.66
2023-05-05T12:46:04.074Z,100947.78
2023-05-05T12:51:17.828Z,100946.91
2023-05-05T12:56:49.029Z,100949.69
2023-05-05T13:01:50.915Z,100937.97
2023-05-05T13:06:45.857Z,100907.94
2023-05-05T13:11:40.400Z,100919.47
2023-05-05T13:16:33.533Z,100915.66
2023-05-05T13:21:26.729Z,100912.28
2023-05-05T13:26:20.721Z,100882.00
2023-05-05T13:31:13.482Z,100845.53
2023-05-05T13:36:07.509Z,100844.88
2023-05-05T13:41:01.143Z,100860.75
2023-05-05T13:45:55.070Z,100858.50
2023-05-05T13:50:50.909Z,100874.09
2023-05-05T13:55:43.745Z,100873.22
2023-05-05T14:00:38.336Z,100830.63
2023-05-05T14:05:34.637Z,100853.56
2023-05-05T14:10:30.292Z,100831.50
2023-05-05T14:15:23.375Z,100824.41
2023-05-05T14:20:16.450Z,100850.06
2023-05-05T14:25:10.093Z,100848.25
2023-05-05T14:30:04.084Z,100843.78
2023-05-05T14:34:58.014Z,100830.16
2023-05-05T14:39:51.582Z,100853.56
2023-05-05T14:44:44.957Z,100828.78
2023-05-05T14:49:40.001Z,100844.09
2023-05-05T14:54:33.599Z,100825.16
2023-05-05T14:59:28.436Z,100845.50
2023-05-05T15:04:21.449Z,100820.38
2023-05-05T15:09:16.087Z,100835.63
2023-05-05T15:14:11.122Z,100822.84
2023-05-05T15:19:04.652Z,100835.63
2023-05-05T15:23:58.411Z,100803.59
2023-05-05T15:28:53.292Z,100791.00
2023-05-05T15:33:52.713Z,100844.31
2023-05-05T15:38:45.699Z,100828.28
2023-05-05T15:43:43.627Z,100818.69
2023-05-05T15:48:36.441Z,100807.84
2023-05-05T15:53:29.042Z,100814.13
2023-05-05T15:58:22.964Z,100815.06
2023-05-05T16:03:16.025Z,100805.81
2023-05-05T16:08:11.300Z,100790.06
2023-05-05T16:13:04.075Z,100769.75
2023-05-05T16:17:56.775Z,100818.59
2023-05-05T16:22:50.008Z,100787.31
2023-05-05T16:27:43.180Z,100790.81
2023-05-05T16:32:36.713Z,100803.16
2023-05-05T16:37:30.596Z,100796.16
2023-05-05T16:42:23.790Z,100766.59
2023-05-05T16:47:16.669Z,100764.78
2023-05-05T16:52:10.388Z,100775.13
2023-05-05T16:57:03.781Z,100770.44
2023-05-05T17:01:57.329Z,100752.53
2023-05-05T17:06:51.197Z,100735.94
2023-05-05T17:11:44.366Z,100774.88
2023-05-05T17:16:38.151Z,100780.94
2023-05-05T17:21:33.469Z,100781.69
2023-05-05T17:26:26.573Z,100750.00
2023-05-05T17:31:20.626Z,100761.25
2023-05-05T17:36:13.659Z,100743.59
2023-05-05T17:41:07.188Z,100766.25
2023-05-05T17:46:01.750Z,100765.44
2023-05-05T17:50:55.191Z,100745.00
2023-05-05T17:55:48.657Z,100748.41
2023-05-05T18:00:42.755Z,100724.25
2023-05-05T18:05:35.986Z,100766.81
2023-05-05T18:10:28.972Z,100764.47
2023-05-05T18:15:22.565Z,100754.28
2023-05-05T18:20:14.917Z,100772.00
2023-05-05T18:25:10.712Z,100755.00
2023-05-05T18:30:05.294Z,100765.66
2023-05-05T18:34:59.904Z,100751.50
2023-05-05T18:39:52.858Z,100754.66
2023-05-05T18:44:45.015Z,100790.22
2023-05-05T18:49:39.081Z,100779.78
2023-05-05T18:54:32.473Z,100791.81
2023-05-05T18:59:25.794Z,100774.69
2023-05-05T19:04:30.122Z,100794.47
2023-05-05T19:09:25.064Z,100794.03
2023-05-05T19:14:18.601Z,100791.50
2023-05-05T19:19:12.195Z,100793.41
2023-05-05T19:24:06.636Z,100786.63
2023-05-05T19:28:59.805Z,100785.09
2023-05-05T19:33:52.779Z,100808.84
2023-05-05T19:38:47.120Z,100805.97
2023-05-05T19:43:40.283Z,100817.44
2023-05-05T19:48:33.416Z,100763.94
2023-05-05T19:53:25.749Z,100800.38
2023-05-05T19:58:19.298Z,100765.66
2023-05-05T20:03:11.914Z,100768.00
2023-05-05T20:08:04.164Z,100803.75
2023-05-05T20:12:57.413Z,100793.38
2023-05-05T20:17:50.175Z,100801.06
2023-05-05T20:22:43.465Z,100798.63
2023-05-05T20:27:39.135Z,100821.72
2023-05-05T20:32:33.058Z,100819.94
2023-05-05T20:37:27.588Z,100827.25
2023-05-05T20:42:20.856Z,100833.25
2023-05-05T20:47:18.119Z,100828.09
2023-05-05T20:52:11.756Z,100802.25
2023-05-05T20:57:05.448Z,100814.28
2023-05-05T21:01:59.444Z,100814.78
2023-05-05T21:06:52.020Z,100814.91
2023-05-05T21:11:44.589Z,100819.16
2023-05-05T21:16:38.550Z,100777.34
2023-05-05T21:21:32.272Z,100802.16
2023-05-05T21:26:28.280Z,100781.38
2023-05-05T21:31:22.380Z,100779.38
2023-05-05T21:36:18.021Z,100792.25
2023-05-05T21:41:10.525Z,100773.63
2023-05-05T21:46:10.089Z,100791.31
2023-05-05T21:51:02.742Z,100781.28
2023-05-05T21:55:55.637Z,100770.00
2023-05-05T22:00:51.691Z,100792.91
2023-05-05T22:05:44.631Z,100787.69
2023-05-05T22:10:38.065Z,100787.69
2023-05-05T22:15:45.868Z,100762.66
2023-05-05T22:20:40.739Z,100770.63
2023-05-05T22:25:33.251Z,100792.38
2023-05-05T22:30:26.465Z,100790.44
2023-05-05T22:35:20.223Z,100769.13
2023-05-05T22:40:13.861Z,100768.72
2023-05-05T22:45:09.461Z,100788.13
2023-05-05T22:50:02.959Z,100776.59
2023-05-05T22:54:56.217Z,100794.81
2023-05-05T22:59:49.245Z,100800.56
2023-05-05T23:04:47.877Z,100777.69
2023-05-05T23:09:41.502Z,100777.78
2023-05-05T23:14:33.774Z,100775.97
2023-05-05T23:19:29.431Z,100775.13
2023-05-05T23:24:22.509Z,100769.56
2023-05-05T23:29:16.125Z,100771.59
2023-05-05T23:34:13.782Z,100755.63
2023-05-05T23:39:06.965Z,100764.25
2023-05-05T23:44:00.732Z,100750.94
2023-05-05T23:48:55.012Z,100720.84
2023-05-05T23:53:47.722Z,100743.84
2023-05-05T23:58:40.728Z,100741.16
